sensor_id;sensor_type;location;lat;lon;timestamp;pressure;altitude;pressure_sealevel;temperature;humidity
80627;BME280;69982;51.758;5.784;2024-01-27T00:01:48;103411.06;;;3.99;75.91
80627;BME280;69982;51.758;5.784;2024-01-27T00:04:15;103416.48;;;3.98;76.08
80627;BME280;69982;51.758;5.784;2024-01-27T00:07:03;103415.19;;;3.99;75.94
80627;BME280;69982;51.758;5.784;2024-01-27T00:09:36;103412.41;;;4.01;75.97
80627;BME280;69982;51.758;5.784;2024-01-27T00:12:07;103416.20;;;4.05;76.13
80627;BME280;69982;51.758;5.784;2024-01-27T00:14:38;103420.35;;;4.08;76.24
80627;BME280;69982;51.758;5.784;2024-01-27T00:17:12;103426.75;;;4.14;75.97
80627;BME280;69982;51.758;5.784;2024-01-27T00:19:40;103426.15;;;4.20;76.00
80627;BME280;69982;51.758;5.784;2024-01-27T00:22:15;103422.80;;;4.23;75.80
80627;BME280;69982;51.758;5.784;2024-01-27T00:24:51;103431.30;;;4.21;75.72
80627;BME280;69982;51.758;5.784;2024-01-27T00:27:19;103436.83;;;4.17;75.83
80627;BME280;69982;51.758;5.784;2024-01-27T00:29:49;103443.13;;;4.12;75.74
80627;BME280;69982;51.758;5.784;2024-01-27T00:32:17;103442.50;;;4.06;75.82
80627;BME280;69982;51.758;5.784;2024-01-27T00:34:47;103450.77;;;4.01;75.76
80627;BME280;69982;51.758;5.784;2024-01-27T00:37:17;103448.64;;;3.96;75.89
80627;BME280;69982;51.758;5.784;2024-01-27T00:39:48;103447.70;;;3.92;75.97
80627;BME280;69982;51.758;5.784;2024-01-27T00:42:17;103444.52;;;3.90;76.06
80627;BME280;69982;51.758;5.784;2024-01-27T00:44:51;103445.31;;;3.94;75.99
80627;BME280;69982;51.758;5.784;2024-01-27T00:47:29;103444.56;;;3.99;76.11
80627;BME280;69982;51.758;5.784;2024-01-27T00:50:07;103443.80;;;4.05;76.04
80627;BME280;69982;51.758;5.784;2024-01-27T00:52:36;103435.94;;;4.08;75.86
80627;BME280;69982;51.758;5.784;2024-01-27T00:55:07;103439.46;;;4.10;75.74
80627;BME280;69982;51.758;5.784;2024-01-27T00:57:37;103439.52;;;4.09;76.03
80627;BME280;69982;51.758;5.784;2024-01-27T01:00:14;103445.13;;;4.07;75.98
80627;BME280;69982;51.758;5.784;2024-01-27T01:02:48;103449.89;;;4.05;75.93
80627;BME280;69982;51.758;5.784;2024-01-27T01:05:15;103450.52;;;4.03;76.03
80627;BME280;69982;51.758;5.784;2024-01-27T01:07:42;103446.11;;;4.00;76.06
80627;BME280;69982;51.758;5.784;2024-01-27T01:10:09;103446.40;;;3.98;75.83
80627;BME280;69982;51.758;5.784;2024-01-27T01:12:36;103446.05;;;3.93;76.04
80627;BME280;69982;51.758;5.784;2024-01-27T01:15:05;103447.10;;;3.89;75.95
80627;BME280;69982;51.758;5.784;2024-01-27T01:17:34;103449.05;;;3.84;75.93
80627;BME280;69982;51.758;5.784;2024-01-27T01:20:01;103449.73;;;3.81;75.88
80627;BME280;69982;51.758;5.784;2024-01-27T01:22:31;103451.73;;;3.80;76.23
80627;BME280;69982;51.758;5.784;2024-01-27T01:25:01;103454.30;;;3.83;76.06
80627;BME280;69982;51.758;5.784;2024-01-27T01:27:46;103450.60;;;3.86;76.25
80627;BME280;69982;51.758;5.784;2024-01-27T01:30:16;103448.08;;;3.91;76.06
80627;BME280;69982;51.758;5.784;2024-01-27T01:32:43;103449.67;;;3.97;76.20
80627;BME280;69982;51.758;5.784;2024-01-27T01:35:13;103452.86;;;4.02;76.15
80627;BME280;69982;51.758;5.784;2024-01-27T01:37:39;103457.52;;;4.07;75.96
80627;BME280;69982;51.758;5.784;2024-01-27T01:40:06;103452.95;;;4.09;75.83
80627;BME280;69982;51.758;5.784;2024-01-27T01:42:36;103446.85;;;4.09;75.92
80627;BME280;69982;51.758;5.784;2024-01-27T01:45:06;103457.23;;;4.05;75.88
80627;BME280;69982;51.758;5.784;2024-01-27T01:47:51;103460.30;;;4.00;75.71
80627;BME280;69982;51.758;5.784;2024-01-27T01:50:21;103453.56;;;3.93;75.83
80627;BME280;69982;51.758;5.784;2024-01-27T01:52:51;103455.84;;;3.85;75.99
80627;BME280;69982;51.758;5.784;2024-01-27T01:55:22;103457.88;;;3.79;76.00
80627;BME280;69982;51.758;5.784;2024-01-27T01:58:14;103463.85;;;3.72;75.97
80627;BME280;69982;51.758;5.784;2024-01-27T02:01:04;103465.06;;;3.64;76.20
80627;BME280;69982;51.758;5.784;2024-01-27T02:03:38;103456.30;;;3.59;76.19
80627;BME280;69982;51.758;5.784;2024-01-27T02:06:13;103461.94;;;3.57;76.33
80627;BME280;69982;51.758;5.784;2024-01-27T02:08:45;103463.63;;;3.59;76.37
80627;BME280;69982;51.758;5.784;2024-01-27T02:11:38;103465.02;;;3.65;76.50
80627;BME280;69982;51.758;5.784;2024-01-27T02:14:08;103464.50;;;3.74;76.40
80627;BME280;69982;51.758;5.784;2024-01-27T02:16:38;103454.94;;;3.80;76.13
80627;BME280;69982;51.758;5.784;2024-01-27T02:19:11;103458.23;;;3.83;76.06
80627;BME280;69982;51.758;5.784;2024-01-27T02:22:00;103454.05;;;3.85;76.08
80627;BME280;69982;51.758;5.784;2024-01-27T02:24:39;103452.28;;;3.84;76.27
80627;BME280;69982;51.758;5.784;2024-01-27T02:27:08;103454.58;;;3.80;76.07
80627;BME280;69982;51.758;5.784;2024-01-27T02:29:56;103468.27;;;3.78;76.12
80627;BME280;69982;51.758;5.784;2024-01-27T02:32:28;103458.73;;;3.75;76.05
80627;BME280;69982;51.758;5.784;2024-01-27T02:35:30;103462.21;;;3.69;76.31
80627;BME280;69982;51.758;5.784;2024-01-27T02:38:11;103469.44;;;3.62;76.31
80627;BME280;69982;51.758;5.784;2024-01-27T02:40:40;103467.88;;;3.56;76.19
80627;BME280;69982;51.758;5.784;2024-01-27T02:43:11;103471.64;;;3.56;76.34
80627;BME280;69982;51.758;5.784;2024-01-27T02:45:46;103477.45;;;3.58;76.51
80627;BME280;69982;51.758;5.784;2024-01-27T02:48:13;103469.73;;;3.59;76.55
80627;BME280;69982;51.758;5.784;2024-01-27T02:50:52;103470.34;;;3.62;76.49
80627;BME280;69982;51.758;5.784;2024-01-27T02:53:42;103471.20;;;3.63;76.61
80627;BME280;69982;51.758;5.784;2024-01-27T02:56:09;103473.72;;;3.63;76.61
80627;BME280;69982;51.758;5.784;2024-01-27T02:58:37;103471.57;;;3.63;76.50
80627;BME280;69982;51.758;5.784;2024-01-27T03:01:24;103471.19;;;3.58;76.65
80627;BME280;69982;51.758;5.784;2024-01-27T03:04:06;103480.58;;;3.56;76.50
80627;BME280;69982;51.758;5.784;2024-01-27T03:06:38;103470.27;;;3.54;76.51
80627;BME280;69982;51.758;5.784;2024-01-27T03:09:09;103472.94;;;3.50;76.69
80627;BME280;69982;51.758;5.784;2024-01-27T03:11:42;103475.29;;;3.44;76.93
80627;BME280;69982;51.758;5.784;2024-01-27T03:14:16;103469.98;;;3.42;76.81
80627;BME280;69982;51.758;5.784;2024-01-27T03:16:54;103462.41;;;3.44;77.06
80627;BME280;69982;51.758;5.784;2024-01-27T03:19:46;103459.27;;;3.46;77.16
80627;BME280;69982;51.758;5.784;2024-01-27T03:22:17;103458.09;;;3.49;76.98
80627;BME280;69982;51.758;5.784;2024-01-27T03:24:51;103450.16;;;3.50;77.07
80627;BME280;69982;51.758;5.784;2024-01-27T03:27:25;103452.63;;;3.52;77.23
80627;BME280;69982;51.758;5.784;2024-01-27T03:29:52;103454.95;;;3.52;77.18
80627;BME280;69982;51.758;5.784;2024-01-27T03:32:19;103458.96;;;3.50;77.34
80627;BME280;69982;51.758;5.784;2024-01-27T03:35:11;103462.86;;;3.46;77.42
80627;BME280;69982;51.758;5.784;2024-01-27T03:37:52;103465.23;;;3.40;77.47
80627;BME280;69982;51.758;5.784;2024-01-27T03:40:42;103463.64;;;3.35;77.57
80627;BME280;69982;51.758;5.784;2024-01-27T03:43:16;103471.86;;;3.30;77.55
80627;BME280;69982;51.758;5.784;2024-01-27T03:45:59;103480.83;;;3.30;77.60
80627;BME280;69982;51.758;5.784;2024-01-27T03:48:30;103473.19;;;3.33;77.47
80627;BME280;69982;51.758;5.784;2024-01-27T03:51:07;103476.27;;;3.37;77.56
80627;BME280;69982;51.758;5.784;2024-01-27T03:53:58;103471.23;;;3.42;77.30
80627;BME280;69982;51.758;5.784;2024-01-27T03:56:26;103476.64;;;3.42;77.33
80627;BME280;69982;51.758;5.784;2024-01-27T03:58:52;103475.73;;;3.42;77.43
80627;BME280;69982;51.758;5.784;2024-01-27T04:01:36;103477.52;;;3.42;77.25
80627;BME280;69982;51.758;5.784;2024-01-27T04:04:04;103479.00;;;3.41;77.34
80627;BME280;69982;51.758;5.784;2024-01-27T04:06:39;103487.21;;;3.41;77.24
80627;BME280;69982;51.758;5.784;2024-01-27T04:09:13;103486.16;;;3.36;77.07
80627;BME280;69982;51.758;5.784;2024-01-27T04:11:41;103484.36;;;3.31;77.21
80627;BME280;69982;51.758;5.784;2024-01-27T04:14:08;103487.90;;;3.27;77.21
80627;BME280;69982;51.758;5.784;2024-01-27T04:16:35;103491.80;;;3.23;77.23
80627;BME280;69982;51.758;5.784;2024-01-27T04:19:02;103490.36;;;3.23;77.46
80627;BME280;69982;51.758;5.784;2024-01-27T04:21:28;103496.23;;;3.24;77.46
80627;BME280;69982;51.758;5.784;2024-01-27T04:23:55;103502.84;;;3.24;77.39
80627;BME280;69982;51.758;5.784;2024-01-27T04:26:35;103500.07;;;3.28;77.47
80627;BME280;69982;51.758;5.784;2024-01-27T04:29:04;103498.50;;;3.31;77.41
80627;BME280;69982;51.758;5.784;2024-01-27T04:31:44;103496.94;;;3.35;77.45
80627;BME280;69982;51.758;5.784;2024-01-27T04:34:20;103490.31;;;3.35;77.42
80627;BME280;69982;51.758;5.784;2024-01-27T04:36:48;103491.42;;;3.34;77.27
80627;BME280;69982;51.758;5.784;2024-01-27T04:42:41;103492.52;;;3.34;77.26
80627;BME280;69982;51.758;5.784;2024-01-27T04:45:08;103497.02;;;3.33;77.24
80627;BME280;69982;51.758;5.784;2024-01-27T04:47:37;103497.77;;;3.32;77.04
80627;BME280;69982;51.758;5.784;2024-01-27T04:50:27;103495.20;;;3.29;77.21
80627;BME280;69982;51.758;5.784;2024-01-27T04:53:01;103498.38;;;3.24;76.98
80627;BME280;69982;51.758;5.784;2024-01-27T04:55:58;103494.54;;;3.21;76.87
80627;BME280;69982;51.758;5.784;2024-01-27T04:58:28;103493.30;;;3.21;77.11
80627;BME280;69982;51.758;5.784;2024-01-27T05:01:35;103497.66;;;3.24;77.16
80627;BME280;69982;51.758;5.784;2024-01-27T05:04:26;103496.44;;;3.29;76.88
80627;BME280;69982;51.758;5.784;2024-01-27T05:06:58;103503.60;;;3.34;76.95
80627;BME280;69982;51.758;5.784;2024-01-27T05:09:43;103502.34;;;3.39;76.81
80627;BME280;69982;51.758;5.784;2024-01-27T05:12:11;103500.73;;;3.44;76.69
80627;BME280;69982;51.758;5.784;2024-01-27T05:14:44;103501.66;;;3.48;76.50
80627;BME280;69982;51.758;5.784;2024-01-27T05:17:13;103496.08;;;3.49;76.44
80627;BME280;69982;51.758;5.784;2024-01-27T05:19:43;103487.36;;;3.47;76.28
80627;BME280;69982;51.758;5.784;2024-01-27T05:22:13;103494.13;;;3.43;76.20
80627;BME280;69982;51.758;5.784;2024-01-27T05:24:49;103485.67;;;3.39;76.09
80627;BME280;69982;51.758;5.784;2024-01-27T05:27:20;103484.98;;;3.34;76.18
80627;BME280;69982;51.758;5.784;2024-01-27T05:29:48;103490.08;;;3.26;76.29
80627;BME280;69982;51.758;5.784;2024-01-27T05:32:18;103483.98;;;3.21;76.19
80627;BME280;69982;51.758;5.784;2024-01-27T05:34:57;103480.04;;;3.17;76.19
80627;BME280;69982;51.758;5.784;2024-01-27T05:37:56;103480.38;;;3.11;76.27
80627;BME280;69982;51.758;5.784;2024-01-27T05:40:29;103475.60;;;3.10;76.12
80627;BME280;69982;51.758;5.784;2024-01-27T05:43:01;103474.85;;;3.11;76.31
80627;BME280;69982;51.758;5.784;2024-01-27T05:45:37;103473.38;;;3.13;76.46
80627;BME280;69982;51.758;5.784;2024-01-27T05:48:30;103473.04;;;3.17;76.52
80627;BME280;69982;51.758;5.784;2024-01-27T05:51:01;103472.44;;;3.23;76.26
80627;BME280;69982;51.758;5.784;2024-01-27T05:53:30;103470.61;;;3.30;76.39
80627;BME280;69982;51.758;5.784;2024-01-27T05:55:59;103473.86;;;3.34;76.17
80627;BME280;69982;51.758;5.784;2024-01-27T05:58:28;103476.68;;;3.36;76.09
80627;BME280;69982;51.758;5.784;2024-01-27T06:00:55;103480.70;;;3.33;75.96
80627;BME280;69982;51.758;5.784;2024-01-27T06:03:24;103475.61;;;3.31;75.92
80627;BME280;69982;51.758;5.784;2024-01-27T06:06:04;103481.13;;;3.26;75.98
80627;BME280;69982;51.758;5.784;2024-01-27T06:08:37;103483.20;;;3.23;75.91
80627;BME280;69982;51.758;5.784;2024-01-27T06:11:35;103476.27;;;3.17;75.89
80627;BME280;69982;51.758;5.784;2024-01-27T06:14:08;103484.77;;;3.09;75.94
80627;BME280;69982;51.758;5.784;2024-01-27T06:16:37;103472.30;;;3.02;75.89
80627;BME280;69982;51.758;5.784;2024-01-27T06:19:08;103475.45;;;2.99;75.96
80627;BME280;69982;51.758;5.784;2024-01-27T06:21:40;103481.37;;;2.99;75.88
80627;BME280;69982;51.758;5.784;2024-01-27T06:24:14;103483.48;;;3.00;75.96
80627;BME280;69982;51.758;5.784;2024-01-27T06:26:46;103488.73;;;3.03;76.20
80627;BME280;69982;51.758;5.784;2024-01-27T06:29:16;103491.65;;;3.07;76.09
80627;BME280;69982;51.758;5.784;2024-01-27T06:31:42;103499.23;;;3.10;76.05
80627;BME280;69982;51.758;5.784;2024-01-27T06:34:09;103499.91;;;3.11;75.90
80627;BME280;69982;51.758;5.784;2024-01-27T06:36:36;103502.06;;;3.11;75.98
80627;BME280;69982;51.758;5.784;2024-01-27T06:39:03;103496.70;;;3.06;75.92
80627;BME280;69982;51.758;5.784;2024-01-27T06:41:31;103487.52;;;3.02;75.86
80627;BME280;69982;51.758;5.784;2024-01-27T06:44:05;103489.95;;;2.99;75.93
80627;BME280;69982;51.758;5.784;2024-01-27T06:46:41;103485.03;;;2.96;75.99
80627;BME280;69982;51.758;5.784;2024-01-27T06:49:16;103490.91;;;2.92;75.84
80627;BME280;69982;51.758;5.784;2024-01-27T06:51:57;103488.17;;;2.88;75.96
80627;BME280;69982;51.758;5.784;2024-01-27T06:54:49;103487.86;;;2.87;75.98
80627;BME280;69982;51.758;5.784;2024-01-27T06:57:24;103490.02;;;2.87;76.22
80627;BME280;69982;51.758;5.784;2024-01-27T06:59:52;103487.38;;;2.91;76.06
80627;BME280;69982;51.758;5.784;2024-01-27T08:56:55;103554.55;;;4.01;78.92
80627;BME280;69982;51.758;5.784;2024-01-27T08:59:24;103557.94;;;4.15;78.44
80627;BME280;69982;51.758;5.784;2024-01-27T09:01:54;103552.39;;;4.29;78.08
80627;BME280;69982;51.758;5.784;2024-01-27T09:04:24;103547.66;;;4.39;77.99
80627;BME280;69982;51.758;5.784;2024-01-27T09:06:54;103552.64;;;4.50;77.49
80627;BME280;69982;51.758;5.784;2024-01-27T09:09:24;103557.87;;;4.58;77.15
80627;BME280;69982;51.758;5.784;2024-01-27T09:11:53;103564.27;;;4.65;76.94
80627;BME280;69982;51.758;5.784;2024-01-27T09:14:19;103571.49;;;4.72;76.87
80627;BME280;69982;51.758;5.784;2024-01-27T09:16:48;103574.12;;;4.82;76.76
80627;BME280;69982;51.758;5.784;2024-01-27T09:19:15;103576.35;;;4.89;76.40
80627;BME280;69982;51.758;5.784;2024-01-27T09:21:41;103577.42;;;4.98;76.55
80627;BME280;69982;51.758;5.784;2024-01-27T09:24:12;103577.73;;;5.08;75.99
80627;BME280;69982;51.758;5.784;2024-01-27T09:26:39;103579.33;;;5.17;76.18
80627;BME280;69982;51.758;5.784;2024-01-27T09:29:09;103580.73;;;5.26;75.75
80627;BME280;69982;51.758;5.784;2024-01-27T09:31:36;103580.55;;;5.34;75.70
80627;BME280;69982;51.758;5.784;2024-01-27T09:34:06;103582.35;;;5.46;75.40
80627;BME280;69982;51.758;5.784;2024-01-27T09:36:36;103577.87;;;5.59;74.96
80627;BME280;69982;51.758;5.784;2024-01-27T09:39:06;103578.29;;;5.69;74.50
80627;BME280;69982;51.758;5.784;2024-01-27T09:41:40;103583.64;;;5.78;74.42
80627;BME280;69982;51.758;5.784;2024-01-27T09:44:10;103589.10;;;5.89;74.34
80627;BME280;69982;51.758;5.784;2024-01-27T09:46:46;103600.33;;;6.00;74.19
80627;BME280;69982;51.758;5.784;2024-01-27T09:49:17;103604.56;;;6.10;73.68
80627;BME280;69982;51.758;5.784;2024-01-27T09:51:43;103608.33;;;6.18;73.47
80627;BME280;69982;51.758;5.784;2024-01-27T09:54:10;103612.06;;;6.27;73.31
80627;BME280;69982;51.758;5.784;2024-01-27T09:56:37;103615.95;;;6.35;73.27
80627;BME280;69982;51.758;5.784;2024-01-27T09:59:05;103617.17;;;6.44;72.89
80627;BME280;69982;51.758;5.784;2024-01-27T10:01:35;103617.49;;;6.49;72.64
80627;BME280;69982;51.758;5.784;2024-01-27T10:04:03;103623.37;;;6.50;72.39
80627;BME280;69982;51.758;5.784;2024-01-27T10:06:43;103619.53;;;6.56;72.33
80627;BME280;69982;51.758;5.784;2024-01-27T10:09:10;103615.44;;;6.59;71.87
80627;BME280;69982;51.758;5.784;2024-01-27T10:11:39;103616.35;;;6.62;71.74
80627;BME280;69982;51.758;5.784;2024-01-27T10:14:11;103618.61;;;6.67;71.87
80627;BME280;69982;51.758;5.784;2024-01-27T10:16:45;103611.64;;;6.74;71.33
80627;BME280;69982;51.758;5.784;2024-01-27T10:19:18;103618.55;;;6.83;71.15
80627;BME280;69982;51.758;5.784;2024-01-27T10:21:46;103618.92;;;6.94;71.49
80627;BME280;69982;51.758;5.784;2024-01-27T10:24:15;103615.40;;;7.07;71.24
80627;BME280;69982;51.758;5.784;2024-01-27T10:27:04;103617.54;;;7.19;70.43
80627;BME280;69982;51.758;5.784;2024-01-27T10:29:35;103620.84;;;7.32;70.64
80627;BME280;69982;51.758;5.784;2024-01-27T10:32:18;103622.02;;;7.44;70.07
80627;BME280;69982;51.758;5.784;2024-01-27T10:35:06;103618.45;;;7.54;69.80
80627;BME280;69982;51.758;5.784;2024-01-27T10:37:43;103623.77;;;7.70;69.78
80627;BME280;69982;51.758;5.784;2024-01-27T10:40:14;103621.06;;;7.80;68.84
80627;BME280;69982;51.758;5.784;2024-01-27T10:42:44;103625.44;;;7.86;68.58
80627;BME280;69982;51.758;5.784;2024-01-27T10:45:14;103631.84;;;7.91;68.49
80627;BME280;69982;51.758;5.784;2024-01-27T10:47:49;103633.09;;;7.98;68.98
80627;BME280;69982;51.758;5.784;2024-01-27T10:50:18;103632.91;;;8.05;68.56
80627;BME280;69982;51.758;5.784;2024-01-27T10:52:50;103631.38;;;8.10;68.41
80627;BME280;69982;51.758;5.784;2024-01-27T10:55:20;103626.00;;;8.19;68.45
80627;BME280;69982;51.758;5.784;2024-01-27T10:57:53;103625.17;;;8.28;68.18
80627;BME280;69982;51.758;5.784;2024-01-27T11:00:41;103621.54;;;8.39;68.53
80627;BME280;69982;51.758;5.784;2024-01-27T11:06:17;103613.74;;;8.65;67.65
80627;BME280;69982;51.758;5.784;2024-01-27T11:08:46;103603.81;;;8.75;68.12
80627;BME280;69982;51.758;5.784;2024-01-27T11:11:14;103596.80;;;8.90;67.57
80627;BME280;69982;51.758;5.784;2024-01-27T11:13:42;103591.91;;;9.03;66.77
80627;BME280;69982;51.758;5.784;2024-01-27T11:16:16;103594.30;;;9.15;66.14
80627;BME280;69982;51.758;5.784;2024-01-27T11:18:52;103591.98;;;9.27;65.78
80627;BME280;69982;51.758;5.784;2024-01-27T11:21:19;103583.10;;;9.39;65.62
80627;BME280;69982;51.758;5.784;2024-01-27T11:23:47;103582.73;;;9.54;65.68
80627;BME280;69982;51.758;5.784;2024-01-27T11:26:22;103580.98;;;9.67;64.69
80627;BME280;69982;51.758;5.784;2024-01-27T11:28:50;103577.11;;;9.81;64.14
80627;BME280;69982;51.758;5.784;2024-01-27T11:31:19;103578.21;;;9.92;63.06
80627;BME280;69982;51.758;5.784;2024-01-27T11:33:50;103575.82;;;10.02;63.00
80627;BME280;69982;51.758;5.784;2024-01-27T11:36:28;103582.03;;;10.12;62.56
80627;BME280;69982;51.758;5.784;2024-01-27T11:38:57;103585.86;;;10.21;61.60
80627;BME280;69982;51.758;5.784;2024-01-27T11:41:39;103584.33;;;10.30;61.51
80627;BME280;69982;51.758;5.784;2024-01-27T11:44:49;103573.41;;;10.45;61.13
80627;BME280;69982;51.758;5.784;2024-01-27T11:47:49;103572.07;;;10.55;60.53
80627;BME280;69982;51.758;5.784;2024-01-27T11:50:22;103570.88;;;10.62;60.40
80627;BME280;69982;51.758;5.784;2024-01-27T11:52:49;103565.46;;;10.70;60.83
80627;BME280;69982;51.758;5.784;2024-01-27T11:55:16;103563.63;;;10.76;58.83
80627;BME280;69982;51.758;5.784;2024-01-27T11:57:45;103567.44;;;10.81;59.53
80627;BME280;69982;51.758;5.784;2024-01-27T12:00:12;103565.61;;;10.87;59.13
80627;BME280;69982;51.758;5.784;2024-01-27T12:02:38;103564.31;;;10.87;58.12
80627;BME280;69982;51.758;5.784;2024-01-27T12:05:06;103557.10;;;10.84;58.27
80627;BME280;69982;51.758;5.784;2024-01-27T12:07:37;103552.91;;;10.89;58.94
80627;BME280;69982;51.758;5.784;2024-01-27T12:10:07;103556.58;;;10.97;58.11
80627;BME280;69982;51.758;5.784;2024-01-27T12:12:37;103555.12;;;11.02;58.50
80627;BME280;69982;51.758;5.784;2024-01-27T12:15:06;103557.25;;;11.09;57.94
80627;BME280;69982;51.758;5.784;2024-01-27T12:17:33;103561.44;;;11.11;57.48
80627;BME280;69982;51.758;5.784;2024-01-27T12:20:14;103566.45;;;11.12;57.14
80627;BME280;69982;51.758;5.784;2024-01-27T12:22:48;103562.52;;;11.17;56.67
80627;BME280;69982;51.758;5.784;2024-01-27T12:25:21;103566.65;;;11.20;56.95
80627;BME280;69982;51.758;5.784;2024-01-27T12:27:49;103561.48;;;11.24;56.97
80627;BME280;69982;51.758;5.784;2024-01-27T12:30:15;103564.17;;;11.32;57.46
80627;BME280;69982;51.758;5.784;2024-01-27T12:32:43;103563.98;;;11.40;57.16
80627;BME280;69982;51.758;5.784;2024-01-27T12:35:10;103565.31;;;11.50;57.30
80627;BME280;69982;51.758;5.784;2024-01-27T12:37:36;103565.70;;;11.57;56.39
80627;BME280;69982;51.758;5.784;2024-01-27T12:40:17;103562.75;;;11.63;55.78
80627;BME280;69982;51.758;5.784;2024-01-27T12:42:47;103560.27;;;11.67;55.19
80627;BME280;69982;51.758;5.784;2024-01-27T12:45:14;103556.02;;;11.72;54.97
80627;BME280;69982;51.758;5.784;2024-01-27T12:47:41;103562.35;;;11.74;54.68
80627;BME280;69982;51.758;5.784;2024-01-27T12:50:08;103567.77;;;11.77;55.09
80627;BME280;69982;51.758;5.784;2024-01-27T12:52:42;103563.65;;;11.85;55.08
80627;BME280;69982;51.758;5.784;2024-01-27T12:55:08;103562.23;;;11.89;54.01
80627;BME280;69982;51.758;5.784;2024-01-27T12:57:38;103559.78;;;11.93;54.27
80627;BME280;69982;51.758;5.784;2024-01-27T13:00:07;103561.02;;;11.96;54.01
80627;BME280;69982;51.758;5.784;2024-01-27T13:02:36;103559.61;;;11.98;53.85
80627;BME280;69982;51.758;5.784;2024-01-27T13:05:08;103564.77;;;11.99;53.50
80627;BME280;69982;51.758;5.784;2024-01-27T13:07:35;103561.74;;;12.01;52.86
80627;BME280;69982;51.758;5.784;2024-01-27T13:10:03;103561.30;;;12.07;53.18
80627;BME280;69982;51.758;5.784;2024-01-27T13:12:32;103556.05;;;12.14;52.47
80627;BME280;69982;51.758;5.784;2024-01-27T13:15:15;103553.72;;;12.22;52.59
80627;BME280;69982;51.758;5.784;2024-01-27T13:17:42;103542.05;;;12.27;51.99
80627;BME280;69982;51.758;5.784;2024-01-27T13:20:29;103531.50;;;12.30;52.17
80627;BME280;69982;51.758;5.784;2024-01-27T13:22:56;103532.27;;;12.31;52.34
80627;BME280;69982;51.758;5.784;2024-01-27T13:25:25;103529.02;;;12.34;51.60
80627;BME280;69982;51.758;5.784;2024-01-27T13:27:51;103524.98;;;12.37;50.74
80627;BME280;69982;51.758;5.784;2024-01-27T13:30:20;103526.94;;;12.36;51.09
80627;BME280;69982;51.758;5.784;2024-01-27T13:32:50;103523.05;;;12.37;50.25
80627;BME280;69982;51.758;5.784;2024-01-27T13:35:17;103520.05;;;12.38;50.43
80627;BME280;69982;51.758;5.784;2024-01-27T13:37:43;103517.45;;;12.36;50.28
80627;BME280;69982;51.758;5.784;2024-01-27T13:40:12;103519.69;;;12.38;50.89
80627;BME280;69982;51.758;5.784;2024-01-27T13:42:39;103517.85;;;12.43;51.64
80627;BME280;69982;51.758;5.784;2024-01-27T13:45:06;103507.95;;;12.44;51.13
80627;BME280;69982;51.758;5.784;2024-01-27T13:47:37;103503.52;;;12.50;51.49
80627;BME280;69982;51.758;5.784;2024-01-27T13:50:08;103496.19;;;12.53;51.37
80627;BME280;69982;51.758;5.784;2024-01-27T13:52:38;103494.55;;;12.58;51.62
80627;BME280;69982;51.758;5.784;2024-01-27T13:55:05;103498.98;;;12.61;50.88
80627;BME280;69982;51.758;5.784;2024-01-27T13:57:32;103499.85;;;12.60;51.03
80627;BME280;69982;51.758;5.784;2024-01-27T14:00:02;103499.56;;;12.61;50.25
80627;BME280;69982;51.758;5.784;2024-01-27T14:02:29;103499.14;;;12.57;50.24
80627;BME280;69982;51.758;5.784;2024-01-27T14:05:10;103499.36;;;12.57;50.68
80627;BME280;69982;51.758;5.784;2024-01-27T14:07:42;103499.75;;;12.59;50.83
80627;BME280;69982;51.758;5.784;2024-01-27T14:10:38;103498.01;;;12.58;50.89
80627;BME280;69982;51.758;5.784;2024-01-27T14:13:07;103498.25;;;12.55;50.48
80627;BME280;69982;51.758;5.784;2024-01-27T14:15:37;103504.88;;;12.49;50.53
80627;BME280;69982;51.758;5.784;2024-01-27T14:18:06;103511.27;;;12.41;51.09
80627;BME280;69982;51.758;5.784;2024-01-27T14:20:33;103516.69;;;12.34;51.29
80627;BME280;69982;51.758;5.784;2024-01-27T14:23:05;103519.92;;;12.26;51.16
80627;BME280;69982;51.758;5.784;2024-01-27T14:25:33;103527.29;;;12.18;51.01
80627;BME280;69982;51.758;5.784;2024-01-27T14:28:04;103532.06;;;12.10;50.89
80627;BME280;69982;51.758;5.784;2024-01-27T14:30:44;103532.98;;;12.05;51.03
80627;BME280;69982;51.758;5.784;2024-01-27T14:33:15;103528.70;;;11.99;51.44
80627;BME280;69982;51.758;5.784;2024-01-27T14:35:49;103527.70;;;11.90;51.25
80627;BME280;69982;51.758;5.784;2024-01-27T14:38:19;103526.00;;;11.83;51.59
80627;BME280;69982;51.758;5.784;2024-01-27T14:40:49;103527.67;;;11.77;51.60
80627;BME280;69982;51.758;5.784;2024-01-27T14:43:16;103524.72;;;11.73;52.12
80627;BME280;69982;51.758;5.784;2024-01-27T14:45:46;103523.28;;;11.70;52.37
80627;BME280;69982;51.758;5.784;2024-01-27T14:48:18;103519.45;;;11.67;52.62
80627;BME280;69982;51.758;5.784;2024-01-27T14:50:48;103515.22;;;11.65;52.43
80627;BME280;69982;51.758;5.784;2024-01-27T14:53:28;103514.13;;;11.61;52.33
80627;BME280;69982;51.758;5.784;2024-01-27T14:55:58;103504.59;;;11.52;52.66
80627;BME280;69982;51.758;5.784;2024-01-27T14:58:25;103507.89;;;11.46;52.71
80627;BME280;69982;51.758;5.784;2024-01-27T15:01:03;103502.42;;;11.39;52.73
80627;BME280;69982;51.758;5.784;2024-01-27T15:03:32;103500.06;;;11.31;52.84
80627;BME280;69982;51.758;5.784;2024-01-27T15:06:17;103498.20;;;11.21;53.14
80627;BME280;69982;51.758;5.784;2024-01-27T15:08:44;103499.34;;;11.13;53.38
80627;BME280;69982;51.758;5.784;2024-01-27T15:11:18;103499.15;;;11.05;53.66
80627;BME280;69982;51.758;5.784;2024-01-27T15:13:48;103499.15;;;10.94;53.73
80627;BME280;69982;51.758;5.784;2024-01-27T15:16:15;103504.41;;;10.83;54.03
80627;BME280;69982;51.758;5.784;2024-01-27T15:18:44;103506.85;;;10.74;54.34
80627;BME280;69982;51.758;5.784;2024-01-27T15:21:11;103507.80;;;10.65;54.65
80627;BME280;69982;51.758;5.784;2024-01-27T15:23:38;103508.29;;;10.55;54.99
80627;BME280;69982;51.758;5.784;2024-01-27T15:26:16;103513.20;;;10.47;55.14
80627;BME280;69982;51.758;5.784;2024-01-27T15:28:51;103511.80;;;10.38;55.38